Time;durP1;ratioP1;P1;durP2;ratioP2;P2;SDS_P1;SDS_P2;PMS_P1;PMS_P2;Temp;Humidity;BMP_temperature;BMP_pressure;BME280_temperature;BME280_humidity;BME280_pressure;Samples;Min_cycle;Max_cycle;Signal;HPM_P1;HPM_P2
2022/07/30 00:02:21;;;;;;;6.40;4.85;;;11.70;99.90;;;;;;5006413;28;20060;-37
2022/07/30 00:04:47;;;;;;;6.63;5.35;;;11.70;99.90;;;;;;5006724;28;20053;-37
2022/07/30 00:07:13;;;;;;;5.63;4.97;;;11.90;99.90;;;;;;5006665;28;20488;-37
2022/07/30 00:09:39;;;;;;;6.75;5.18;;;12.40;99.90;;;;;;5006529;28;20053;-37
2022/07/30 00:12:06;;;;;;;9.43;7.72;;;11.80;99.90;;;;;;5006005;28;20214;-37
2022/07/30 00:14:33;;;;;;;7.28;5.03;;;11.50;99.90;;;;;;5006391;28;20046;-37
2022/07/30 00:16:59;;;;;;;6.22;5.30;;;11.80;99.90;;;;;;5006325;28;20451;-37
2022/07/30 00:19:25;;;;;;;6.57;5.35;;;11.40;99.90;;;;;;5005995;28;20509;-37
2022/07/30 00:21:51;;;;;;;11.35;7.60;;;12.10;99.90;;;;;;5006015;28;20046;-37
2022/07/30 00:24:16;;;;;;;7.75;6.38;;;11.80;99.90;;;;;;5005943;28;20064;-37
2022/07/30 00:26:42;;;;;;;6.43;5.75;;;11.90;99.90;;;;;;5006144;28;20056;-37
2022/07/30 00:29:08;;;;;;;8.00;7.20;;;11.40;99.90;;;;;;5006104;28;20046;-37
2022/07/30 00:31:33;;;;;;;7.18;6.47;;;12.20;99.90;;;;;;5006669;28;20110;-37
2022/07/30 00:33:59;;;;;;;7.65;6.72;;;12.20;99.90;;;;;;5006339;28;20199;-37
2022/07/30 00:36:25;;;;;;;30.00;10.40;;;12.30;99.90;;;;;;5006543;28;20506;-37
2022/07/30 00:38:50;;;;;;;9.82;7.28;;;11.90;99.90;;;;;;5006500;28;20413;-37
2022/07/30 00:41:16;;;;;;;7.97;7.15;;;11.80;99.90;;;;;;5006272;28;20088;-37
2022/07/30 00:43:42;;;;;;;9.77;8.07;;;11.80;99.90;;;;;;5006223;28;20048;-37
2022/07/30 00:46:08;;;;;;;5.03;4.53;;;11.50;99.90;;;;;;5006176;28;20057;-37
2022/07/30 00:48:34;;;;;;;5.55;4.10;;;11.60;99.90;;;;;;5006017;28;20042;-37
2022/07/30 00:51:00;;;;;;;5.68;3.85;;;11.80;99.90;;;;;;5005910;28;20057;-37
2022/07/30 00:53:25;;;;;;;9.15;8.27;;;11.80;99.90;;;;;;5008857;28;20054;-37
2022/07/30 00:55:51;;;;;;;9.23;8.27;;;11.60;99.90;;;;;;5009630;28;20092;-37
2022/07/30 00:58:17;;;;;;;10.38;7.85;;;11.50;99.90;;;;;;5009483;28;20054;-37
2022/07/30 01:00:42;;;;;;;9.23;6.53;;;11.80;99.90;;;;;;5009986;28;20037;-37
2022/07/30 01:03:08;;;;;;;6.32;5.72;;;11.10;99.90;;;;;;5010081;28;20049;-37
2022/07/30 01:05:34;;;;;;;57.17;14.70;;;11.40;99.90;;;;;;5009436;28;20046;-37
2022/07/30 01:08:00;;;;;;;11.02;8.20;;;11.10;99.90;;;;;;5009503;28;20527;-37
2022/07/30 01:10:25;;;;;;;10.35;8.38;;;11.40;99.90;;;;;;5009528;28;20395;-37
2022/07/30 01:12:54;;;;;;;10.15;8.30;;;11.40;99.90;;;;;;5009181;28;20058;-37
2022/07/30 01:15:20;;;;;;;10.20;9.13;;;11.40;99.90;;;;;;5009714;28;20469;-38
2022/07/30 01:17:49;;;;;;;8.40;7.60;;;11.10;99.90;;;;;;5009690;28;20042;-37
2022/07/30 01:20:21;;;;;;;4.88;3.55;;;11.60;99.90;;;;;;5009353;28;20038;-37
2022/07/30 01:23:06;;;;;;;7.63;5.18;;;11.10;99.90;;;;;;5008964;28;20046;-37
2022/07/30 01:25:31;;;;;;;7.78;6.50;;;10.90;99.90;;;;;;5009078;28;20053;-37
2022/07/30 01:28:07;;;;;;;7.22;6.45;;;11.30;99.90;;;;;;5009067;28;20057;-37
2022/07/30 01:30:37;;;;;;;10.10;7.05;;;10.90;99.90;;;;;;5008956;28;20100;-37
2022/07/30 01:33:05;;;;;;;8.80;7.30;;;10.70;99.90;;;;;;5009006;28;20042;-37
2022/07/30 01:35:33;;;;;;;12.30;7.47;;;10.70;99.90;;;;;;5008722;28;20543;-37
2022/07/30 01:38:02;;;;;;;8.45;6.25;;;10.70;99.90;;;;;;5009436;28;20053;-38
2022/07/30 01:40:29;;;;;;;11.25;6.90;;;10.90;99.90;;;;;;5008979;28;20042;-37
2022/07/30 01:42:57;;;;;;;7.63;6.47;;;10.70;99.90;;;;;;5009505;28;20049;-37
2022/07/30 01:45:25;;;;;;;6.53;5.85;;;11.10;99.90;;;;;;5009360;28;20049;-37
2022/07/30 01:47:57;;;;;;;7.15;5.32;;;10.50;99.90;;;;;;5009522;28;20045;-37
2022/07/30 01:50:22;;;;;;;10.77;4.05;;;10.50;99.90;;;;;;5009118;28;20060;-37
2022/07/30 01:52:51;;;;;;;3.17;2.85;;;11.30;99.90;;;;;;5009229;28;20050;-37
2022/07/30 01:55:24;;;;;;;3.72;2.88;;;10.30;99.90;;;;;;5008762;28;20113;-37
2022/07/30 01:57:50;;;;;;;;;;;10.20;99.90;;;;;;5009326;28;20046;-37
2022/07/30 02:00:16;;;;;;;8.05;3.60;;;10.30;99.90;;;;;;5009185;28;19921;-37
2022/07/30 02:02:42;;;;;;;6.22;3.95;;;10.30;99.90;;;;;;5009024;28;20052;-37
2022/07/30 02:05:08;;;;;;;12.60;4.07;;;10.30;99.90;;;;;;5008689;28;20045;-37
2022/07/30 02:07:58;;;;;;;7.57;4.10;;;10.40;99.90;;;;;;5009038;28;20045;-37
2022/07/30 02:10:33;;;;;;;53.97;7.45;;;11.00;99.90;;;;;;5008460;28;20068;-37
2022/07/30 02:13:01;;;;;;;6.68;4.90;;;10.10;99.90;;;;;;5008495;28;20054;-37
2022/07/30 02:15:59;;;;;;;5.90;4.10;;;10.10;99.90;;;;;;5008797;28;20112;-37
2022/07/30 02:18:35;;;;;;;12.10;4.57;;;10.20;99.90;;;;;;5008389;28;20554;-37
2022/07/30 02:21:07;;;;;;;7.25;5.70;;;10.10;99.90;;;;;;5008942;28;20030;-37
2022/07/30 02:23:40;;;;;;;7.88;7.07;;;10.00;99.90;;;;;;5023256;28;20050;-37
2022/07/30 02:26:08;;;;;;;7.30;6.32;;;10.10;99.90;;;;;;5009070;28;20061;-37
2022/07/30 02:28:37;;;;;;;6.03;5.43;;;9.70;99.90;;;;;;5008096;28;20050;-37
2022/07/30 02:31:06;;;;;;;7.63;6.20;;;9.90;99.90;;;;;;5008322;28;20468;-37
2022/07/30 02:33:41;;;;;;;5.80;5.20;;;9.70;99.90;;;;;;5008070;28;20084;-37
2022/07/30 02:36:09;;;;;;;5.55;4.85;;;9.90;99.90;;;;;;5008652;28;20050;-37
2022/07/30 02:38:37;;;;;;;5.50;4.63;;;9.90;99.90;;;;;;5008020;28;20038;-37
2022/07/30 02:41:03;;;;;;;5.93;5.32;;;9.80;99.90;;;;;;5008432;28;20053;-37
2022/07/30 02:43:31;;;;;;;4.15;3.53;;;10.50;99.90;;;;;;5008153;28;20456;-37
2022/07/30 02:45:59;;;;;;;9.13;4.18;;;10.20;99.90;;;;;;5008599;28;20216;-37
2022/07/30 02:48:27;;;;;;;9.52;5.03;;;9.70;99.90;;;;;;5006708;28;20084;-37
2022/07/30 02:50:55;;;;;;;10.82;8.35;;;9.90;99.90;;;;;;5008217;28;20653;-37
2022/07/30 02:53:22;;;;;;;12.95;7.57;;;10.10;99.90;;;;;;5008349;28;20046;-37
2022/07/30 02:55:49;;;;;;;8.68;7.55;;;9.90;99.90;;;;;;5007929;28;20049;-37
2022/07/30 02:58:19;;;;;;;9.45;7.45;;;9.90;99.90;;;;;;5007887;28;20038;-37
2022/07/30 03:00:47;;;;;;;7.72;6.93;;;9.90;99.90;;;;;;5006482;28;20783;-37
2022/07/30 03:03:14;;;;;;;12.07;8.27;;;9.90;99.90;;;;;;5008003;28;20046;-37
2022/07/30 03:05:41;;;;;;;10.48;8.80;;;9.80;99.90;;;;;;5008311;28;20042;-37
2022/07/30 03:08:07;;;;;;;8.23;7.35;;;10.00;99.90;;;;;;5008427;28;20046;-37
2022/07/30 03:10:34;;;;;;;9.80;8.82;;;10.00;99.90;;;;;;5007645;28;20127;-37
2022/07/30 03:13:03;;;;;;;9.48;8.15;;;10.60;99.90;;;;;;5007213;28;20064;-37
2022/07/30 03:15:29;;;;;;;6.95;6.25;;;10.00;99.90;;;;;;5004768;28;20049;-37
2022/07/30 03:17:57;;;;;;;7.68;5.97;;;9.50;99.90;;;;;;5007539;28;20180;-37
2022/07/30 03:20:26;;;;;;;9.85;8.40;;;9.90;99.90;;;;;;5007566;28;20046;-37
2022/07/30 03:22:53;;;;;;;40.00;11.15;;;9.80;99.90;;;;;;5007668;28;20569;-37
2022/07/30 03:25:24;;;;;;;125.68;14.13;;;9.90;99.90;;;;;;5007073;28;20053;-37
2022/07/30 03:27:52;;;;;;;24.77;10.70;;;9.80;99.90;;;;;;5007230;28;20095;-37
2022/07/30 03:30:18;;;;;;;12.68;9.70;;;9.80;99.90;;;;;;5007484;28;20046;-37
2022/07/30 03:32:45;;;;;;;12.27;9.93;;;10.40;99.90;;;;;;5007316;28;20045;-37
2022/07/30 03:35:12;;;;;;;14.15;9.60;;;9.70;99.90;;;;;;5007050;28;20528;-37
2022/07/30 03:37:39;;;;;;;19.70;9.88;;;9.80;99.90;;;;;;5007206;28;20044;-37
2022/07/30 03:40:06;;;;;;;52.15;14.20;;;9.80;99.90;;;;;;5007519;28;20049;-36
2022/07/30 03:42:33;;;;;;;12.35;9.85;;;9.70;99.90;;;;;;5005612;28;20050;-36
2022/07/30 03:45:05;;;;;;;39.38;8.93;;;10.40;99.90;;;;;;5006989;28;20050;-36
2022/07/30 03:47:32;;;;;;;53.72;8.15;;;9.70;99.90;;;;;;5006948;28;20041;-36
2022/07/30 03:49:58;;;;;;;126.30;14.90;;;9.50;99.90;;;;;;5006783;28;20042;-36
2022/07/30 03:52:26;;;;;;;8.00;7.15;;;9.70;99.90;;;;;;5007032;28;20410;-36
2022/07/30 03:54:52;;;;;;;22.23;8.30;;;10.00;99.90;;;;;;5006499;28;20072;-37
2022/07/30 03:57:19;;;;;;;17.02;8.57;;;9.70;99.90;;;;;;5006945;28;20078;-36
2022/07/30 03:59:45;;;;;;;44.83;12.38;;;9.50;99.90;;;;;;5006671;28;20050;-36
2022/07/30 04:02:12;;;;;;;19.83;10.60;;;10.00;99.90;;;;;;5006777;28;20042;-36
2022/07/30 04:04:42;;;;;;;16.13;10.70;;;9.60;99.90;;;;;;5006317;28;20138;-36
2022/07/30 04:07:08;;;;;;;12.70;11.15;;;9.60;99.90;;;;;;5006688;28;20395;-36
2022/07/30 04:09:34;;;;;;;12.20;10.63;;;9.60;99.90;;;;;;5006356;28;20037;-36
2022/07/30 04:12:00;;;;;;;18.95;14.07;;;10.40;99.90;;;;;;5006666;28;20069;-36
2022/07/30 04:14:26;;;;;;;16.80;13.02;;;9.40;99.90;;;;;;5006889;28;20045;-37
2022/07/30 04:17:00;;;;;;;17.23;13.27;;;10.00;99.90;;;;;;5006808;28;20069;-36
2022/07/30 04:19:30;;;;;;;20.38;15.50;;;9.40;99.90;;;;;;5007100;28;20387;-37
2022/07/30 04:21:57;;;;;;;24.63;17.38;;;10.30;99.90;;;;;;5006740;28;20053;-36
2022/07/30 04:24:25;;;;;;;20.85;14.80;;;9.50;99.90;;;;;;5006523;28;20054;-36
2022/07/30 04:26:51;;;;;;;19.30;15.40;;;9.90;99.90;;;;;;5004112;28;20400;-36
2022/07/30 04:29:18;;;;;;;31.10;19.92;;;10.10;99.90;;;;;;5006067;28;20667;-36
2022/07/30 04:31:44;;;;;;;22.50;16.50;;;10.00;99.90;;;;;;5006289;28;20060;-37
2022/07/30 04:34:13;;;;;;;26.48;18.02;;;10.50;99.90;;;;;;5006718;28;20042;-36
2022/07/30 04:36:40;;;;;;;25.75;18.88;;;10.20;99.90;;;;;;5006124;28;20586;-36
2022/07/30 04:39:06;;;;;;;23.65;17.65;;;10.40;99.90;;;;;;5006345;28;20043;-36
2022/07/30 04:41:32;;;;;;;23.02;17.23;;;10.50;99.90;;;;;;5006639;28;20037;-36
2022/07/30 04:43:57;;;;;;;28.92;19.17;;;10.60;99.90;;;;;;5006150;28;20124;-36
2022/07/30 04:46:23;;;;;;;25.65;18.70;;;10.50;99.90;;;;;;5006398;28;20498;-36
2022/07/30 04:48:49;;;;;;;28.67;20.58;;;10.80;99.90;;;;;;5006165;28;20042;-37
2022/07/30 04:51:39;;;;;;;32.28;21.40;;;10.70;99.90;;;;;;5006574;28;20484;-36
2022/07/30 04:54:09;;;;;;;31.05;22.25;;;11.10;99.90;;;;;;5006502;28;20377;-37
2022/07/30 04:56:36;;;;;;;37.45;24.63;;;11.20;99.90;;;;;;5006139;28;20081;-36
2022/07/30 04:59:03;;;;;;;44.35;25.55;;;11.30;99.90;;;;;;5005860;28;20488;-37
2022/07/30 05:01:34;;;;;;;34.30;22.95;;;11.40;99.90;;;;;;5006196;28;20042;-37
2022/07/30 05:04:00;;;;;;;33.80;24.05;;;11.50;99.90;;;;;;5005993;28;20065;-37
2022/07/30 05:06:27;;;;;;;38.25;24.08;;;12.20;99.90;;;;;;5005858;28;20135;-37
2022/07/30 05:08:53;;;;;;;32.63;22.98;;;11.80;99.90;;;;;;5005754;28;20058;-37
2022/07/30 05:11:19;;;;;;;30.92;22.65;;;12.00;99.90;;;;;;5006003;28;20065;-37
2022/07/30 05:13:48;;;;;;;29.27;22.65;;;12.20;99.90;;;;;;5005756;28;20100;-37
2022/07/30 05:16:14;;;;;;;30.30;24.17;;;12.60;99.90;;;;;;5005962;28;20113;-37
2022/07/30 05:18:40;;;;;;;30.48;23.38;;;12.90;99.90;;;;;;5006203;28;20042;-37
2022/07/30 05:21:06;;;;;;;27.95;21.88;;;12.90;99.90;;;;;;5005734;28;20041;-37
2022/07/30 05:23:32;;;;;;;28.65;22.25;;;13.00;99.90;;;;;;5005775;28;20049;-37
2022/07/30 05:25:58;;;;;;;25.20;20.83;;;13.30;99.90;;;;;;5005705;28;20506;-37
2022/07/30 05:28:25;;;;;;;23.45;20.65;;;13.40;99.90;;;;;;5005789;28;20121;-37
2022/07/30 05:30:52;;;;;;;21.00;18.25;;;13.50;99.90;;;;;;5005428;28;20057;-37
2022/07/30 05:33:18;;;;;;;22.83;18.95;;;14.10;99.90;;;;;;5004460;28;20111;-37
2022/07/30 05:35:44;;;;;;;20.48;18.35;;;14.00;99.90;;;;;;5005931;28;20038;-36
2022/07/30 05:38:10;;;;;;;23.20;18.75;;;14.30;99.90;;;;;;5005678;28;20068;-36
2022/07/30 05:40:35;;;;;;;24.02;17.17;;;14.80;99.90;;;;;;5008476;28;20073;-37
2022/07/30 05:43:01;;;;;;;20.85;17.17;;;15.10;99.90;;;;;;5009204;28;20046;-37
2022/07/30 05:45:27;;;;;;;22.40;18.35;;;15.10;99.90;;;;;;5008823;28;20096;-37
2022/07/30 05:47:52;;;;;;;19.23;17.20;;;15.20;99.90;;;;;;5009151;28;20054;-36
2022/07/30 05:50:18;;;;;;;21.42;18.48;;;15.60;99.90;;;;;;5009047;28;20045;-37
2022/07/30 05:52:44;;;;;;;22.15;18.55;;;15.60;99.90;;;;;;5009014;28;20096;-37
2022/07/30 05:55:10;;;;;;;19.45;17.08;;;15.90;99.90;;;;;;5008539;28;20042;-37
2022/07/30 05:57:35;;;;;;;20.23;16.73;;;16.20;99.90;;;;;;5008743;28;20377;-37
2022/07/30 06:00:04;;;;;;;17.00;15.00;;;16.50;99.90;;;;;;5008875;28;20092;-37
2022/07/30 06:02:30;;;;;;;18.80;14.90;;;17.20;99.90;;;;;;5009104;28;20042;-37
2022/07/30 06:04:56;;;;;;;18.33;13.85;;;18.80;99.90;;;;;;5008428;28;20800;-37
2022/07/30 06:07:22;;;;;;;16.55;12.32;;;20.00;99.90;;;;;;5008636;28;20069;-37
2022/07/30 06:09:47;;;;;;;15.10;11.95;;;20.90;99.90;;;;;;5008486;28;20119;-37
2022/07/30 06:12:13;;;;;;;14.05;11.48;;;21.80;99.90;;;;;;5008500;28;20070;-37
2022/07/30 06:14:39;;;;;;;12.07;10.73;;;22.50;99.90;;;;;;5008964;28;20457;-37
2022/07/30 06:17:04;;;;;;;10.95;9.40;;;21.90;99.90;;;;;;5008384;28;20045;-37
2022/07/30 06:19:30;;;;;;;12.63;10.05;;;21.10;99.90;;;;;;5008593;28;20078;-37
2022/07/30 06:21:56;;;;;;;11.80;9.35;;;20.70;99.90;;;;;;5008135;28;20188;-37
2022/07/30 06:24:21;;;;;;;11.70;8.75;;;20.60;99.90;;;;;;5008706;28;20042;-37
2022/07/30 06:26:47;;;;;;;11.40;8.68;;;20.50;99.90;;;;;;5008786;28;20046;-37
2022/07/30 06:29:13;;;;;;;10.68;8.85;;;20.50;99.90;;;;;;5008052;28;20507;-37
2022/07/30 06:31:40;;;;;;;9.32;6.68;;;20.50;99.90;;;;;;5007775;28;20116;-37
2022/07/30 06:34:06;;;;;;;8.52;6.22;;;20.50;99.90;;;;;;5008491;28;20168;-37
2022/07/30 06:36:32;;;;;;;10.50;6.75;;;20.50;99.90;;;;;;5008290;28;20450;-37
2022/07/30 06:38:57;;;;;;;11.88;7.90;;;20.60;99.90;;;;;;5007847;28;20038;-37
2022/07/30 06:41:24;;;;;;;10.25;7.30;;;20.60;99.90;;;;;;5007995;28;20431;-37
2022/07/30 06:43:50;;;;;;;8.27;5.80;;;20.80;99.90;;;;;;5007794;28;20085;-37
2022/07/30 06:46:16;;;;;;;9.07;5.95;;;21.10;99.90;;;;;;5007824;28;20508;-37
2022/07/30 06:48:41;;;;;;;7.38;5.82;;;21.80;99.90;;;;;;5008007;28;20049;-37
2022/07/30 06:51:07;;;;;;;7.43;5.90;;;24.10;99.90;;;;;;5007029;28;20096;-37
2022/07/30 06:53:33;;;;;;;5.88;4.07;;;26.00;99.80;;;;;;5007659;28;20046;-37
2022/07/30 06:55:59;;;;;;;7.32;4.15;;;27.50;95.60;;;;;;5007333;28;20042;-37
2022/07/30 06:58:25;;;;;;;6.03;3.10;;;28.70;91.60;;;;;;5008379;28;20477;-38
2022/07/30 07:00:50;;;;;;;3.75;3.30;;;29.80;86.70;;;;;;5008009;28;20488;-38
2022/07/30 07:03:16;;;;;;;5.80;3.17;;;30.70;80.40;;;;;;5007550;28;20037;-38
2022/07/30 07:05:42;;;;;;;5.90;3.47;;;31.60;76.50;;;;;;5007983;28;20038;-37
2022/07/30 07:08:07;;;;;;;4.70;3.13;;;32.30;72.60;;;;;;5007421;28;20061;-37
2022/07/30 07:10:33;;;;;;;5.55;3.10;;;32.80;69.80;;;;;;5007190;28;20088;-38
2022/07/30 07:12:59;;;;;;;4.93;2.75;;;33.30;67.50;;;;;;5006621;28;20053;-38
2022/07/30 07:15:25;;;;;;;2.40;1.08;;;33.60;65.10;;;;;;5007167;28;20096;-37
2022/07/30 07:17:51;;;;;;;5.88;3.20;;;34.10;61.10;;;;;;5007375;28;20120;-37
2022/07/30 07:20:17;;;;;;;1.55;0.90;;;34.40;59.90;;;;;;5007158;28;20089;-37
2022/07/30 07:22:43;;;;;;;2.22;1.00;;;34.40;57.30;;;;;;5007002;28;20042;-37
2022/07/30 07:25:09;;;;;;;2.60;1.40;;;33.80;56.00;;;;;;5007289;28;20125;-37
2022/07/30 07:27:35;;;;;;;1.50;1.00;;;33.30;56.00;;;;;;5007239;28;20041;-37
2022/07/30 07:30:02;;;;;;;3.03;2.25;;;33.50;56.20;;;;;;5007668;28;20049;-37
2022/07/30 07:32:27;;;;;;;4.07;1.95;;;33.60;57.80;;;;;;5007134;28;20041;-37
2022/07/30 07:34:53;;;;;;;3.70;0.90;;;34.20;57.00;;;;;;5006855;28;20088;-37
2022/07/30 07:37:19;;;;;;;2.90;0.93;;;34.80;55.40;;;;;;5006621;28;20038;-37
2022/07/30 07:39:44;;;;;;;3.90;1.20;;;35.80;54.00;;;;;;5006056;28;20046;-37
2022/07/30 07:42:10;;;;;;;4.55;1.83;;;36.60;53.20;;;;;;5006114;28;20129;-37
2022/07/30 07:44:36;;;;;;;3.15;1.67;;;37.10;53.00;;;;;;5007073;28;20076;-37
2022/07/30 07:47:01;;;;;;;2.28;1.27;;;37.80;52.10;;;;;;5007154;28;20050;-37
2022/07/30 07:49:27;;;;;;;4.10;1.67;;;38.10;51.60;;;;;;5007160;28;20065;-37
2022/07/30 07:51:52;;;;;;;4.25;1.20;;;38.40;50.70;;;;;;5006851;28;20495;-37
2022/07/30 07:54:18;;;;;;;4.85;1.60;;;38.70;50.50;;;;;;5006143;28;20049;-37
2022/07/30 07:56:44;;;;;;;4.32;1.95;;;39.20;49.50;;;;;;5006458;28;20352;-37
2022/07/30 07:59:10;;;;;;;6.32;1.80;;;39.70;49.60;;;;;;5006632;28;20103;-37
2022/07/30 08:01:36;;;;;;;4.78;1.73;;;39.60;49.30;;;;;;5005665;28;20041;-37
2022/07/30 08:04:01;;;;;;;3.53;1.33;;;40.10;47.80;;;;;;5006525;28;20045;-37
2022/07/30 08:06:27;;;;;;;4.30;2.10;;;40.40;47.20;;;;;;5006289;28;20052;-37
2022/07/30 08:08:54;;;;;;;4.43;1.30;;;41.00;46.60;;;;;;5006154;28;20389;-37
2022/07/30 08:11:19;;;;;;;2.10;0.47;;;41.20;45.80;;;;;;5005670;28;20551;-37
2022/07/30 08:13:45;;;;;;;1.83;0.60;;;41.40;43.80;;;;;;5006655;28;20065;-37
2022/07/30 08:16:13;;;;;;;7.72;1.40;;;41.50;42.70;;;;;;5006602;28;20127;-37
2022/07/30 08:18:39;;;;;;;1.50;0.70;;;41.50;42.80;;;;;;5006422;28;20048;-37
2022/07/30 08:21:05;;;;;;;2.25;0.50;;;41.60;42.10;;;;;;5021286;28;20050;-37
2022/07/30 08:23:30;;;;;;;3.72;1.33;;;41.60;41.80;;;;;;5006456;28;20049;-37
2022/07/30 08:25:57;;;;;;;2.53;0.80;;;41.30;43.20;;;;;;5006511;28;20111;-37
2022/07/30 08:28:24;;;;;;;2.70;0.82;;;40.90;43.30;;;;;;5006730;28;20130;-37
2022/07/30 08:30:50;;;;;;;2.92;1.10;;;40.80;42.60;;;;;;5006648;28;20155;-37
2022/07/30 08:33:16;;;;;;;5.47;1.65;;;40.70;43.20;;;;;;5006480;28;20543;-37
2022/07/30 08:35:42;;;;;;;6.13;2.13;;;40.60;44.30;;;;;;5005974;28;20050;-37
2022/07/30 08:38:08;;;;;;;3.50;0.80;;;40.60;44.50;;;;;;5005602;28;20072;-37
2022/07/30 08:40:35;;;;;;;5.25;2.03;;;40.60;43.30;;;;;;5005481;28;20104;-37
2022/07/30 08:43:06;;;;;;;2.53;0.98;;;40.70;44.60;;;;;;5006072;28;20037;-37
2022/07/30 08:45:32;;;;;;;5.00;1.23;;;40.60;43.30;;;;;;5005777;28;20487;-38
2022/07/30 08:48:06;;;;;;;4.03;1.20;;;40.70;43.80;;;;;;5004700;28;20053;-37
2022/07/30 08:50:33;;;;;;;2.63;1.15;;;41.00;42.80;;;;;;5006076;28;20073;-37
2022/07/30 08:53:01;;;;;;;3.25;1.00;;;40.80;43.60;;;;;;5006321;28;20056;-37
2022/07/30 08:55:27;;;;;;;5.13;2.17;;;40.80;42.80;;;;;;5006175;28;20045;-37
2022/07/30 08:57:54;;;;;;;4.78;1.20;;;40.80;43.40;;;;;;5006914;28;20057;-37
2022/07/30 09:00:20;;;;;;;2.63;0.70;;;40.90;43.60;;;;;;5006609;28;20145;-37
2022/07/30 09:02:46;;;;;;;4.07;1.48;;;40.20;43.20;;;;;;5006392;28;20097;-37
2022/07/30 09:05:12;;;;;;;3.33;1.10;;;38.50;44.00;;;;;;5006060;28;20096;-37
2022/07/30 09:07:39;;;;;;;5.03;1.80;;;37.50;45.30;;;;;;5006174;28;20045;-37
2022/07/30 09:10:07;;;;;;;5.88;1.40;;;37.60;47.10;;;;;;5006127;28;20113;-37
2022/07/30 09:12:43;;;;;;;5.72;1.38;;;38.00;46.60;;;;;;5005564;28;20062;-37
2022/07/30 09:15:15;;;;;;;2.40;0.90;;;38.50;46.40;;;;;;5009961;28;20058;-37
2022/07/30 09:17:51;;;;;;;3.92;0.90;;;39.20;45.30;;;;;;5009292;28;20662;-37
2022/07/30 09:20:22;;;;;;;4.38;0.98;;;39.90;46.00;;;;;;5009882;28;20053;-37
2022/07/30 09:22:51;;;;;;;3.80;0.80;;;40.40;44.20;;;;;;5010210;28;20046;-37
2022/07/30 09:25:35;;;;;;;3.78;1.35;;;41.00;43.70;;;;;;5009934;28;20096;-37
2022/07/30 09:28:02;;;;;;;2.40;1.05;;;41.40;44.20;;;;;;5010329;28;20050;-37
2022/07/30 09:30:42;;;;;;;3.55;0.77;;;41.80;42.80;;;;;;5009791;28;20120;-37
2022/07/30 09:33:07;;;;;;;5.43;0.77;;;41.70;43.60;;;;;;5007954;28;20068;-36
2022/07/30 09:35:33;;;;;;;4.40;0.75;;;41.70;43.10;;;;;;5009049;28;20045;-37
2022/07/30 09:37:59;;;;;;;6.18;1.60;;;42.00;42.30;;;;;;5009354;28;20049;-37
2022/07/30 09:40:25;;;;;;;3.80;0.82;;;42.00;42.40;;;;;;5008964;28;20038;-37
2022/07/30 09:43:03;;;;;;;4.43;1.13;;;42.40;42.00;;;;;;5009553;28;20038;-36
2022/07/30 09:45:29;;;;;;;3.28;0.70;;;42.40;45.50;;;;;;5009345;28;20511;-36
2022/07/30 09:47:54;;;;;;;3.05;0.68;;;42.50;44.20;;;;;;5009158;28;20444;-36
2022/07/30 09:50:20;;;;;;;1.85;0.45;;;42.50;43.90;;;;;;5008833;28;20042;-36
2022/07/30 09:52:48;;;;;;;2.42;1.08;;;42.10;41.00;;;;;;5007172;28;20050;-37
2022/07/30 09:55:27;;;;;;;4.28;0.50;;;40.90;41.00;;;;;;5009040;28;20046;-36
2022/07/30 09:57:56;;;;;;;2.15;0.40;;;40.60;41.80;;;;;;5008853;28;20072;-36
2022/07/30 10:00:23;;;;;;;3.00;0.50;;;40.70;41.60;;;;;;5008191;28;20041;-36
2022/07/30 10:02:50;;;;;;;1.98;0.52;;;40.80;41.30;;;;;;5008324;28;20571;-37
2022/07/30 10:05:18;;;;;;;2.08;0.45;;;40.90;41.20;;;;;;5008881;28;20049;-36
2022/07/30 10:07:53;;;;;;;4.00;0.65;;;40.70;41.10;;;;;;5008494;28;20045;-36
2022/07/30 10:10:22;;;;;;;3.10;0.73;;;39.30;42.20;;;;;;5008852;28;20037;-36
2022/07/30 10:12:52;;;;;;;2.30;0.60;;;37.80;43.20;;;;;;5008268;28;20046;-36
2022/07/30 10:15:20;;;;;;;3.42;0.63;;;36.60;44.70;;;;;;5008366;28;20054;-36
2022/07/30 10:17:47;;;;;;;2.75;0.40;;;36.40;45.30;;;;;;5008674;28;20044;-36
2022/07/30 10:20:14;;;;;;;1.67;0.40;;;36.90;45.50;;;;;;5008489;28;20046;-36
2022/07/30 10:22:41;;;;;;;1.63;0.47;;;37.30;44.80;;;;;;5008059;28;20126;-36
2022/07/30 10:25:08;;;;;;;4.30;0.57;;;37.00;44.00;;;;;;5007944;28;20050;-36
2022/07/30 10:27:34;;;;;;;1.50;0.47;;;36.40;44.30;;;;;;5008361;28;20053;-36
2022/07/30 10:30:00;;;;;;;3.92;0.60;;;35.20;45.30;;;;;;5008465;28;20116;-36
2022/07/30 10:32:26;;;;;;;1.38;0.50;;;34.50;47.90;;;;;;5007934;28;20038;-36
2022/07/30 10:34:52;;;;;;;5.93;1.15;;;34.90;47.70;;;;;;5008694;28;20172;-36
2022/07/30 10:37:21;;;;;;;6.15;1.13;;;35.50;48.70;;;;;;5008478;28;20480;-36
2022/07/30 10:39:55;;;;;;;3.10;0.75;;;36.30;47.50;;;;;;5009036;28;20049;-36
2022/07/30 10:42:48;;;;;;;2.20;0.77;;;37.20;47.00;;;;;;5008416;28;20041;-36
2022/07/30 10:45:14;;;;;;;2.92;0.82;;;38.00;46.60;;;;;;5007838;28;20053;-36
2022/07/30 10:47:40;;;;;;;3.63;0.82;;;37.50;45.50;;;;;;5006666;28;20042;-36
2022/07/30 10:50:11;;;;;;;5.88;0.80;;;36.60;46.30;;;;;;5006650;28;20096;-36
2022/07/30 10:52:49;;;;;;;3.92;0.80;;;36.80;46.40;;;;;;5005344;28;20340;-36
2022/07/30 10:55:17;;;;;;;5.30;0.88;;;37.30;47.40;;;;;;5004287;28;20050;-36
2022/07/30 10:57:58;;;;;;;4.25;0.95;;;36.50;47.00;;;;;;5007324;28;20046;-36
2022/07/30 11:00:25;;;;;;;3.90;0.65;;;35.90;47.90;;;;;;5007681;28;20088;-36
2022/07/30 11:03:14;;;;;;;2.47;0.60;;;35.20;48.60;;;;;;5007274;28;20586;-36
2022/07/30 11:05:41;;;;;;;2.20;0.50;;;34.20;49.20;;;;;;5007230;28;20050;-36
2022/07/30 11:08:29;;;;;;;2.88;0.77;;;33.30;50.10;;;;;;5007306;28;20371;-36
2022/07/30 11:10:55;;;;;;;5.53;0.65;;;32.60;51.10;;;;;;5007201;28;20057;-36
2022/07/30 11:13:51;;;;;;;2.67;0.70;;;32.00;52.30;;;;;;5005893;28;20053;-36
2022/07/30 11:16:19;;;;;;;5.05;0.70;;;31.40;53.60;;;;;;5007051;28;20050;-36
2022/07/30 11:19:08;;;;;;;2.85;0.68;;;31.10;54.70;;;;;;5007403;28;20049;-36
2022/07/30 11:21:34;;;;;;;4.53;0.60;;;31.00;55.10;;;;;;5006660;28;20058;-36
2022/07/30 11:24:01;;;;;;;2.38;0.63;;;30.90;55.20;;;;;;5008011;28;20046;-36
2022/07/30 11:26:42;;;;;;;3.92;0.73;;;30.80;55.70;;;;;;5007625;28;20073;-36
2022/07/30 11:29:37;;;;;;;2.65;0.60;;;30.70;56.90;;;;;;5007005;28;20088;-36
2022/07/30 11:32:28;;;;;;;3.22;0.70;;;30.40;56.80;;;;;;5006890;28;20166;-36
2022/07/30 11:35:31;;;;;;;6.25;1.17;;;30.20;57.10;;;;;;5006771;28;20053;-36
2022/07/30 11:38:00;;;;;;;4.78;0.98;;;30.10;56.70;;;;;;5003918;28;20165;-36
2022/07/30 11:40:49;;;;;;;2.63;0.55;;;30.00;57.50;;;;;;5006701;28;20551;-36
2022/07/30 11:43:32;;;;;;;5.07;0.70;;;29.80;57.70;;;;;;5005885;28;20125;-36
2022/07/30 11:46:22;;;;;;;2.28;0.50;;;29.50;57.60;;;;;;5006777;28;20052;-36
2022/07/30 11:49:07;;;;;;;4.72;0.80;;;29.50;57.80;;;;;;5006246;28;20048;-36
2022/07/30 11:51:46;;;;;;;3.50;0.88;;;29.30;57.50;;;;;;5006244;28;20076;-36
2022/07/30 11:54:12;;;;;;;2.60;0.55;;;28.90;58.50;;;;;;5006544;28;20506;-36
2022/07/30 11:57:07;;;;;;;3.58;0.80;;;28.70;59.00;;;;;;5006805;28;20128;-36
2022/07/30 11:59:55;;;;;;;2.28;0.60;;;28.60;60.00;;;;;;5014572;28;20057;-36
2022/07/30 12:02:27;;;;;;;1.60;0.40;;;28.60;60.10;;;;;;5007226;28;20388;-37
2022/07/30 12:04:53;;;;;;;2.22;0.52;;;28.50;59.20;;;;;;5006584;28;20463;-37
2022/07/30 12:07:25;;;;;;;2.80;0.50;;;28.60;59.50;;;;;;5006426;28;20073;-37
2022/07/30 12:09:50;;;;;;;2.90;0.50;;;28.60;59.80;;;;;;5006077;28;20049;-37
2022/07/30 12:12:23;;;;;;;3.47;0.88;;;28.60;59.50;;;;;;5006028;28;20065;-37
2022/07/30 12:14:50;;;;;;;4.95;0.80;;;28.30;60.40;;;;;;5006107;28;20073;-37
2022/07/30 12:17:16;;;;;;;1.92;0.70;;;28.10;61.30;;;;;;5006501;28;20045;-37
2022/07/30 12:19:44;;;;;;;2.83;0.60;;;28.20;61.50;;;;;;5006135;28;20096;-37
2022/07/30 12:22:09;;;;;;;3.17;0.70;;;28.30;60.60;;;;;;5006432;28;20388;-37
2022/07/30 12:24:35;;;;;;;3.05;0.60;;;28.10;61.30;;;;;;5006605;28;20050;-37
2022/07/30 12:27:06;;;;;;;2.40;0.70;;;28.10;61.90;;;;;;5006409;28;20046;-37
2022/07/30 12:29:34;;;;;;;4.40;0.77;;;28.10;62.10;;;;;;5006757;28;20046;-37
2022/07/30 12:32:01;;;;;;;3.55;0.90;;;28.10;62.10;;;;;;5006128;28;20562;-37
2022/07/30 12:34:26;;;;;;;3.95;0.68;;;28.10;62.40;;;;;;5006234;28;20045;-37
2022/07/30 12:36:54;;;;;;;7.40;0.80;;;28.00;62.20;;;;;;5006101;28;20034;-37
2022/07/30 12:39:23;;;;;;;3.40;0.82;;;27.80;61.30;;;;;;5006466;28;20045;-37
2022/07/30 12:41:52;;;;;;;3.60;0.80;;;27.80;66.00;;;;;;5004944;28;20049;-37
2022/07/30 12:44:38;;;;;;;3.58;0.90;;;27.60;65.30;;;;;;5006147;28;20060;-37
2022/07/30 12:47:06;;;;;;;5.38;0.90;;;27.30;63.90;;;;;;5004994;28;20061;-37
2022/07/30 12:49:33;;;;;;;3.67;0.60;;;27.10;63.20;;;;;;5009791;28;20041;-36
2022/07/30 12:51:58;;;;;;;3.28;0.68;;;27.20;63.80;;;;;;5010162;28;20054;-37